Time;durP1;ratioP1;P1;durP2;ratioP2;P2;SDS_P1;SDS_P2;PMS_P1;PMS_P2;Temp;Humidity;BMP_temperature;BMP_pressure;BME280_temperature;BME280_humidity;BME280_pressure;Samples;Min_cycle;Max_cycle;Signal;HPM_P1;HPM_P2
2022/08/30 00:02:59;;;;;;;3.45;1.88;;;20.90;83.90;;;;;;5013315;28;20176;-77
2022/08/30 00:05:25;;;;;;;3.95;2.00;;;20.90;84.40;;;;;;5012614;28;20490;-78
2022/08/30 00:07:51;;;;;;;4.32;1.70;;;20.80;84.90;;;;;;5012131;28;20034;-77
2022/08/30 00:10:16;;;;;;;5.18;1.70;;;20.80;85.50;;;;;;5011700;28;20255;-77
2022/08/30 00:12:42;;;;;;;3.88;2.30;;;20.60;86.10;;;;;;5012400;28;20113;-79
2022/08/30 00:15:11;;;;;;;2.55;1.85;;;20.60;86.50;;;;;;5012550;28;20045;-79
2022/08/30 00:17:36;;;;;;;6.05;1.85;;;20.60;87.20;;;;;;5012292;28;20133;-79
2022/08/30 00:20:05;;;;;;;2.80;1.80;;;20.50;87.20;;;;;;5011843;28;20057;-79
2022/08/30 00:22:31;;;;;;;5.07;1.67;;;20.50;88.40;;;;;;5012356;28;20030;-79
2022/08/30 00:24:59;;;;;;;2.45;1.73;;;20.40;88.10;;;;;;5013673;28;20029;-79
2022/08/30 00:27:26;;;;;;;3.72;1.63;;;20.50;87.20;;;;;;5012482;28;20156;-79
2022/08/30 00:29:52;;;;;;;4.57;1.80;;;20.40;87.40;;;;;;5012795;28;20026;-79
2022/08/30 00:32:20;;;;;;;6.25;1.95;;;20.40;87.30;;;;;;5016639;28;20071;-79
2022/08/30 00:34:46;;;;;;;4.70;2.13;;;20.40;87.20;;;;;;5017490;28;20037;-79
2022/08/30 00:37:12;;;;;;;4.28;1.98;;;20.40;86.90;;;;;;5015526;28;20030;-80
2022/08/30 00:39:37;;;;;;;3.25;1.75;;;20.40;86.70;;;;;;5016164;28;20052;-79
2022/08/30 00:42:03;;;;;;;6.03;1.88;;;20.50;86.90;;;;;;5016653;28;20033;-79
2022/08/30 00:44:29;;;;;;;3.30;1.70;;;20.50;87.40;;;;;;5015860;28;20053;-79
2022/08/30 00:46:55;;;;;;;5.47;1.80;;;20.40;88.20;;;;;;5017124;28;20467;-79
2022/08/30 00:49:21;;;;;;;5.68;2.05;;;20.50;87.80;;;;;;5016038;28;20053;-79
2022/08/30 00:51:47;;;;;;;3.55;1.60;;;20.50;87.20;;;;;;5016710;28;20022;-78
2022/08/30 00:54:13;;;;;;;3.90;2.05;;;20.50;86.20;;;;;;5016197;28;20049;-78
2022/08/30 00:56:39;;;;;;;2.35;1.70;;;20.50;86.40;;;;;;5015625;28;20026;-78
2022/08/30 00:59:06;;;;;;;4.60;1.70;;;20.50;87.40;;;;;;5015190;28;20040;-78
2022/08/30 01:01:34;;;;;;;4.32;1.95;;;20.50;87.20;;;;;;5016718;28;20105;-78
2022/08/30 01:04:01;;;;;;;2.22;1.42;;;20.50;88.30;;;;;;5016924;28;20022;-78
2022/08/30 01:06:27;;;;;;;5.30;1.85;;;20.50;88.40;;;;;;5015314;28;20060;-80
2022/08/30 01:08:53;;;;;;;2.85;1.75;;;20.50;88.50;;;;;;5015801;28;20061;-81
2022/08/30 01:11:22;;;;;;;3.35;2.00;;;20.50;87.60;;;;;;5016050;28;20375;-80
2022/08/30 01:13:50;;;;;;;3.58;1.85;;;20.50;87.30;;;;;;5015561;28;20026;-80
2022/08/30 01:16:16;;;;;;;4.97;1.80;;;20.60;87.00;;;;;;5014792;28;20113;-80
2022/08/30 01:18:43;;;;;;;4.13;2.03;;;20.60;86.90;;;;;;5015537;28;20030;-80
2022/08/30 01:21:37;;;;;;;2.25;1.50;;;20.60;88.10;;;;;;5015009;28;20084;-80
2022/08/30 01:24:04;;;;;;;3.72;1.63;;;20.60;88.80;;;;;;5015030;28;20037;-80
2022/08/30 01:26:31;;;;;;;3.47;1.60;;;20.60;87.90;;;;;;5016605;28;20050;-80
2022/08/30 01:29:01;;;;;;;6.68;1.70;;;20.60;87.30;;;;;;5015600;28;20088;-81
2022/08/30 01:31:27;;;;;;;2.88;1.83;;;20.60;86.80;;;;;;5015441;28;20061;-80
2022/08/30 01:33:53;;;;;;;3.42;1.73;;;20.60;86.90;;;;;;5015061;28;20034;-78
2022/08/30 01:36:19;;;;;;;12.43;2.15;;;20.60;86.50;;;;;;5014307;28;20037;-78
2022/08/30 01:38:49;;;;;;;7.55;1.77;;;20.60;86.40;;;;;;5014549;28;20091;-78
2022/08/30 01:41:21;;;;;;;4.55;2.35;;;20.50;86.40;;;;;;5015446;28;20034;-79
2022/08/30 01:43:48;;;;;;;4.35;1.70;;;20.50;86.90;;;;;;5015837;28;20026;-79
2022/08/30 01:46:17;;;;;;;3.22;1.50;;;20.40;87.40;;;;;;5014536;28;20034;-79
2022/08/30 01:48:43;;;;;;;3.25;1.67;;;20.40;86.60;;;;;;5016112;28;20037;-79
2022/08/30 01:51:12;;;;;;;2.03;1.60;;;20.30;86.90;;;;;;5014368;28;20494;-78
2022/08/30 01:53:40;;;;;;;2.20;1.40;;;20.30;87.60;;;;;;5016015;28;20033;-78
2022/08/30 01:56:06;;;;;;;3.05;2.30;;;20.20;87.00;;;;;;5013793;28;20069;-77
2022/08/30 01:58:34;;;;;;;2.35;1.80;;;20.30;86.50;;;;;;5014487;28;20034;-79
2022/08/30 02:01:00;;;;;;;5.40;1.80;;;20.20;86.10;;;;;;5015868;28;20533;-79
2022/08/30 02:03:29;;;;;;;5.43;1.80;;;20.20;86.10;;;;;;5014069;28;20033;-79
2022/08/30 02:05:55;;;;;;;5.82;1.67;;;20.20;86.70;;;;;;5014440;28;20026;-79
2022/08/30 02:08:21;;;;;;;4.85;1.80;;;20.10;86.60;;;;;;5015153;28;20463;-79
2022/08/30 02:10:46;;;;;;;5.38;1.73;;;20.10;86.50;;;;;;5014357;28;20032;-79
2022/08/30 02:13:12;;;;;;;3.75;1.40;;;20.20;86.70;;;;;;5013874;28;20030;-79
2022/08/30 02:15:38;;;;;;;4.10;1.92;;;20.20;86.80;;;;;;5013943;28;20054;-79
2022/08/30 02:18:03;;;;;;;2.58;1.85;;;20.20;88.40;;;;;;5014102;28;20386;-79
2022/08/30 02:20:29;;;;;;;7.10;2.00;;;20.10;87.50;;;;;;5013465;28;20084;-79
2022/08/30 02:22:54;;;;;;;2.80;1.60;;;20.10;87.80;;;;;;5014455;28;20056;-79
2022/08/30 02:25:21;;;;;;;4.20;1.80;;;20.10;87.20;;;;;;5014640;28;20456;-79
2022/08/30 02:27:47;;;;;;;2.80;1.58;;;20.10;87.40;;;;;;5015298;28;20490;-79
2022/08/30 02:30:13;;;;;;;3.75;1.98;;;20.10;88.40;;;;;;5014513;28;20030;-79
2022/08/30 02:32:40;;;;;;;5.20;2.00;;;20.10;89.00;;;;;;5015522;28;20030;-79
2022/08/30 02:35:06;;;;;;;2.85;1.65;;;20.00;89.30;;;;;;5014917;28;20057;-78
2022/08/30 02:37:32;;;;;;;4.10;1.80;;;19.90;89.90;;;;;;5014103;28;20445;-79
2022/08/30 02:39:57;;;;;;;3.95;2.15;;;19.90;90.30;;;;;;5014771;28;20062;-79
2022/08/30 02:42:23;;;;;;;2.83;1.70;;;19.90;90.40;;;;;;5014408;28;20549;-79
2022/08/30 02:44:48;;;;;;;3.88;1.58;;;19.90;90.50;;;;;;5015217;28;20034;-81
2022/08/30 02:47:14;;;;;;;2.97;1.95;;;19.80;90.50;;;;;;5016995;28;20040;-81
2022/08/30 02:49:39;;;;;;;2.70;1.60;;;19.80;90.40;;;;;;5013989;28;20433;-81
2022/08/30 02:52:05;;;;;;;4.72;1.90;;;19.90;89.90;;;;;;5013835;28;20087;-81
2022/08/30 02:54:32;;;;;;;3.47;1.50;;;19.80;90.30;;;;;;5013868;28;20026;-81
2022/08/30 02:56:57;;;;;;;4.25;2.10;;;19.90;89.80;;;;;;5014633;28;20066;-81
2022/08/30 02:59:23;;;;;;;4.97;1.92;;;19.90;89.30;;;;;;5014071;28;20065;-81
2022/08/30 03:01:49;;;;;;;3.08;1.80;;;19.90;89.80;;;;;;5013939;28;20049;-81
2022/08/30 03:04:14;;;;;;;2.90;2.05;;;19.80;89.70;;;;;;5014358;28;20379;-80
2022/08/30 03:06:40;;;;;;;4.40;1.80;;;19.80;89.60;;;;;;5014888;28;20360;-80
2022/08/30 03:09:06;;;;;;;4.85;1.85;;;19.80;89.40;;;;;;5014736;28;20037;-80
2022/08/30 03:11:32;;;;;;;3.25;1.70;;;19.80;89.90;;;;;;5012984;28;20030;-80
2022/08/30 03:13:58;;;;;;;2.92;1.90;;;19.80;90.20;;;;;;5017790;28;20038;-80
2022/08/30 03:16:23;;;;;;;6.22;1.42;;;19.80;90.10;;;;;;5016079;28;20058;-82
2022/08/30 03:18:49;;;;;;;3.45;1.70;;;19.80;89.80;;;;;;5017162;28;20467;-82
2022/08/30 03:21:16;;;;;;;2.92;1.58;;;19.80;89.00;;;;;;5016211;28;20161;-81
2022/08/30 03:23:42;;;;;;;1.83;1.45;;;19.80;89.10;;;;;;5016865;28;20391;-82
2022/08/30 03:26:10;;;;;;;5.10;2.00;;;19.80;89.40;;;;;;5017217;28;20367;-82
2022/08/30 03:28:37;;;;;;;3.88;1.65;;;19.80;89.50;;;;;;5018289;28;20022;-82
2022/08/30 03:31:03;;;;;;;3.63;1.45;;;19.70;89.50;;;;;;5016969;28;20041;-81
2022/08/30 03:33:28;;;;;;;3.00;1.48;;;19.70;89.60;;;;;;5016072;28;20026;-80
2022/08/30 03:35:54;;;;;;;3.70;1.50;;;19.70;89.60;;;;;;5017006;28;20486;-79
2022/08/30 03:38:20;;;;;;;5.55;1.90;;;19.70;89.70;;;;;;5016197;28;20065;-80
2022/08/30 03:40:45;;;;;;;2.15;1.52;;;19.60;90.00;;;;;;5016827;28;20049;-80
2022/08/30 03:43:11;;;;;;;5.78;1.55;;;19.60;90.10;;;;;;5016988;28;20105;-79
2022/08/30 03:45:38;;;;;;;3.45;1.70;;;19.60;89.90;;;;;;5016626;28;20033;-79
2022/08/30 03:48:04;;;;;;;4.18;1.42;;;19.60;90.30;;;;;;5016587;28;20034;-79
2022/08/30 03:50:30;;;;;;;3.30;1.88;;;19.50;90.10;;;;;;5015343;28;20455;-79
2022/08/30 03:52:56;;;;;;;4.97;1.60;;;19.50;90.40;;;;;;5016512;28;20113;-80
2022/08/30 03:55:22;;;;;;;3.53;1.70;;;19.50;90.50;;;;;;5016128;28;20029;-79
2022/08/30 03:57:47;;;;;;;3.92;1.60;;;19.50;90.40;;;;;;5016792;28;20033;-80
2022/08/30 04:00:15;;;;;;;3.65;1.38;;;19.50;90.40;;;;;;5014602;28;20026;-79
2022/08/30 04:02:41;;;;;;;3.35;1.55;;;19.50;90.70;;;;;;5015705;28;20022;-80
2022/08/30 04:05:09;;;;;;;2.67;1.50;;;19.40;90.90;;;;;;5016663;28;20030;-80
2022/08/30 04:07:35;;;;;;;2.70;1.30;;;19.40;90.70;;;;;;5019411;28;20033;-81
2022/08/30 04:10:01;;;;;;;2.22;1.58;;;19.40;90.60;;;;;;5020455;28;20022;-80
2022/08/30 04:12:27;;;;;;;3.75;1.60;;;19.40;90.90;;;;;;5020861;28;20041;-81
2022/08/30 04:14:52;;;;;;;4.32;1.55;;;19.40;90.70;;;;;;5020430;28;20045;-80
2022/08/30 04:17:18;;;;;;;2.95;1.60;;;19.30;90.80;;;;;;5019726;28;20037;-80
2022/08/30 04:19:43;;;;;;;4.93;1.90;;;19.30;90.70;;;;;;5018735;28;20037;-79
2022/08/30 04:22:09;;;;;;;4.68;2.00;;;19.30;91.30;;;;;;5028581;28;20022;-80
2022/08/30 04:24:37;;;;;;;7.13;2.90;;;19.30;91.10;;;;;;5028950;28;20096;-82
2022/08/30 04:27:03;;;;;;;3.20;2.05;;;19.20;91.10;;;;;;5018190;28;20026;-78
2022/08/30 04:29:28;;;;;;;4.43;1.90;;;19.30;91.20;;;;;;5017133;28;20029;-79
2022/08/30 04:31:54;;;;;;;4.93;2.03;;;19.20;91.00;;;;;;5016987;28;20356;-81
2022/08/30 04:34:19;;;;;;;4.55;1.80;;;19.20;91.00;;;;;;5016077;28;20026;-80
2022/08/30 04:36:47;;;;;;;2.45;1.38;;;19.20;91.00;;;;;;5016477;28;20034;-81
2022/08/30 04:39:13;;;;;;;4.03;1.63;;;19.20;91.00;;;;;;5017461;28;20053;-79
2022/08/30 04:41:39;;;;;;;3.83;1.40;;;19.20;91.10;;;;;;5016235;28;20395;-78
2022/08/30 04:44:06;;;;;;;2.90;1.50;;;19.20;91.10;;;;;;5016081;28;20030;-78
2022/08/30 04:46:33;;;;;;;4.28;1.50;;;19.20;91.00;;;;;;5015908;28;20034;-78
2022/08/30 04:48:59;;;;;;;3.85;1.63;;;19.20;91.50;;;;;;5016481;28;20489;-82
2022/08/30 04:51:24;;;;;;;3.45;1.65;;;19.10;91.20;;;;;;5016933;28;20211;-82
2022/08/30 04:53:50;;;;;;;4.03;1.70;;;19.10;91.10;;;;;;5016200;28;20030;-82
2022/08/30 04:56:18;;;;;;;2.30;1.65;;;19.20;91.40;;;;;;5016835;28;20110;-81
2022/08/30 04:58:45;;;;;;;2.35;1.20;;;19.10;91.40;;;;;;5017210;28;20038;-81
2022/08/30 05:01:16;;;;;;;2.80;1.60;;;19.10;91.30;;;;;;5017119;28;20105;-81
2022/08/30 05:03:42;;;;;;;2.63;1.48;;;19.10;91.80;;;;;;5017256;28;20081;-81
2022/08/30 05:06:10;;;;;;;4.60;1.45;;;19.10;92.10;;;;;;5016317;28;20033;-81
2022/08/30 05:08:36;;;;;;;4.18;1.70;;;19.10;91.70;;;;;;5014871;28;20040;-82
2022/08/30 05:11:04;;;;;;;2.90;1.45;;;19.10;91.50;;;;;;5015843;28;20026;-82
2022/08/30 05:13:30;;;;;;;4.78;1.65;;;19.10;91.90;;;;;;5015235;28;20045;-82
2022/08/30 05:15:56;;;;;;;4.78;1.45;;;19.10;92.10;;;;;;5014784;28;20084;-82
2022/08/30 05:18:22;;;;;;;4.90;1.73;;;19.10;92.00;;;;;;5015106;28;20072;-82
2022/08/30 05:20:47;;;;;;;4.50;1.35;;;19.10;92.20;;;;;;5016002;28;20421;-82
2022/08/30 05:23:13;;;;;;;4.80;1.40;;;19.10;92.30;;;;;;5015688;28;20026;-82
2022/08/30 05:25:41;;;;;;;3.15;1.60;;;19.10;91.70;;;;;;5016258;28;20344;-82
2022/08/30 05:28:07;;;;;;;2.13;1.30;;;19.10;91.50;;;;;;5016538;28;20065;-82
2022/08/30 05:30:35;;;;;;;2.15;1.30;;;19.10;91.40;;;;;;5014709;28;20026;-82
2022/08/30 05:33:01;;;;;;;4.72;1.42;;;19.10;91.40;;;;;;5015503;28;20029;-82
2022/08/30 05:35:27;;;;;;;3.25;1.52;;;19.10;91.50;;;;;;5015905;28;20105;-82
2022/08/30 05:37:53;;;;;;;7.38;1.80;;;19.10;91.90;;;;;;5016079;28;20105;-82
2022/08/30 05:40:19;;;;;;;2.80;1.33;;;19.20;91.80;;;;;;5014880;28;20033;-81
2022/08/30 05:42:45;;;;;;;6.22;1.70;;;19.20;91.70;;;;;;5016570;28;20088;-82
2022/08/30 05:45:12;;;;;;;4.75;1.48;;;19.20;91.50;;;;;;5015329;28;20030;-83
2022/08/30 05:47:38;;;;;;;4.68;1.48;;;19.20;91.60;;;;;;5015039;28;20061;-82
2022/08/30 05:50:08;;;;;;;3.22;1.40;;;19.20;91.60;;;;;;5015164;28;20025;-82
2022/08/30 05:52:38;;;;;;;6.20;2.30;;;19.20;91.60;;;;;;5014785;28;20112;-82
2022/08/30 05:55:06;;;;;;;4.65;1.60;;;19.20;91.70;;;;;;5014868;28;20029;-82
2022/08/30 05:57:36;;;;;;;4.45;1.50;;;19.20;91.80;;;;;;5014311;28;20033;-81
2022/08/30 06:00:13;;;;;;;4.57;1.40;;;19.20;91.90;;;;;;5016024;28;20048;-81
2022/08/30 06:02:40;;;;;;;5.57;1.67;;;19.20;92.10;;;;;;5015648;28;20485;-81
2022/08/30 06:05:06;;;;;;;4.32;1.65;;;19.20;92.10;;;;;;5014563;28;20026;-81
2022/08/30 06:07:33;;;;;;;5.40;1.45;;;19.20;92.00;;;;;;5015456;28;20585;-80
2022/08/30 06:09:59;;;;;;;6.03;1.48;;;19.20;92.20;;;;;;5014550;28;20032;-80
2022/08/30 06:12:24;;;;;;;4.93;1.70;;;19.20;92.20;;;;;;5014158;28;20113;-80
2022/08/30 06:14:50;;;;;;;4.75;1.58;;;19.20;92.20;;;;;;5015194;28;20513;-81
2022/08/30 06:17:16;;;;;;;3.42;1.35;;;19.30;92.30;;;;;;5014629;28;20040;-80
2022/08/30 06:19:41;;;;;;;3.38;1.55;;;19.40;92.40;;;;;;5013685;28;20072;-81
2022/08/30 06:22:07;;;;;;;5.75;1.60;;;19.40;92.30;;;;;;5014964;28;20026;-80
2022/08/30 06:24:35;;;;;;;3.13;1.60;;;19.50;92.00;;;;;;5014672;28;20022;-80
2022/08/30 06:27:01;;;;;;;5.88;1.70;;;19.50;92.00;;;;;;5013723;28;20073;-80
2022/08/30 06:29:26;;;;;;;5.93;1.65;;;19.60;91.90;;;;;;5012646;28;20463;-77
2022/08/30 06:31:52;;;;;;;4.53;1.40;;;19.60;91.90;;;;;;5014073;28;20026;-80
2022/08/30 06:34:18;;;;;;;2.70;1.40;;;19.60;91.70;;;;;;5013809;28;20022;-80
2022/08/30 06:36:44;;;;;;;5.13;1.80;;;19.70;91.80;;;;;;5014287;28;20029;-79
2022/08/30 06:39:09;;;;;;;5.60;1.48;;;19.70;91.70;;;;;;5013509;28;20034;-79
2022/08/30 06:41:37;;;;;;;2.97;1.52;;;19.90;91.50;;;;;;5013927;28;20506;-79
2022/08/30 06:44:04;;;;;;;4.45;1.50;;;19.90;91.50;;;;;;5014985;28;20469;-79
2022/08/30 06:46:34;;;;;;;3.67;1.73;;;20.00;91.30;;;;;;5014376;28;20026;-79
2022/08/30 06:49:00;;;;;;;3.80;1.48;;;20.00;91.30;;;;;;5014079;28;20471;-80
2022/08/30 06:51:34;;;;;;;4.22;1.80;;;20.10;91.10;;;;;;5013706;28;20107;-79
2022/08/30 06:54:00;;;;;;;3.03;1.50;;;20.20;91.10;;;;;;5013667;28;20525;-79
2022/08/30 06:56:26;;;;;;;5.15;1.75;;;20.30;91.20;;;;;;5013732;28;20493;-80
2022/08/30 06:58:52;;;;;;;9.65;1.60;;;20.40;91.10;;;;;;5014669;28;20029;-80
2022/08/30 07:01:21;;;;;;;4.57;1.70;;;20.40;91.20;;;;;;5014514;28;20026;-81
2022/08/30 07:03:47;;;;;;;7.00;1.70;;;20.50;91.10;;;;;;5014146;28;20026;-80
2022/08/30 07:06:13;;;;;;;5.35;1.50;;;20.60;91.00;;;;;;5013667;28;20117;-80
2022/08/30 07:08:39;;;;;;;4.65;2.00;;;20.60;90.90;;;;;;5012940;28;20029;-80
2022/08/30 07:11:06;;;;;;;7.07;1.73;;;20.70;90.80;;;;;;5014586;28;20481;-80
2022/08/30 07:13:32;;;;;;;5.38;1.90;;;20.80;90.90;;;;;;5012816;28;20022;-81
2022/08/30 07:15:58;;;;;;;3.38;1.80;;;20.90;91.00;;;;;;5014178;28;20129;-81
2022/08/30 07:21:14;;;;;;;5.13;1.90;;;20.90;90.80;;;;;;5014013;28;20072;-81
2022/08/30 07:23:42;;;;;;;5.13;2.00;;;21.00;91.00;;;;;;5013339;28;20026;-81
2022/08/30 07:26:12;;;;;;;3.85;1.95;;;21.00;91.10;;;;;;5014260;28;20025;-81
2022/08/30 07:28:40;;;;;;;7.07;1.92;;;21.00;90.80;;;;;;5013559;28;20034;-79
2022/08/30 07:31:07;;;;;;;4.00;2.08;;;21.00;91.40;;;;;;5013351;28;20070;-79
2022/08/30 07:33:32;;;;;;;2.65;1.60;;;21.00;91.60;;;;;;5011628;28;20030;-80
2022/08/30 07:35:58;;;;;;;5.78;2.08;;;21.10;91.20;;;;;;5012689;28;20482;-80
2022/08/30 07:38:25;;;;;;;6.47;2.10;;;21.20;90.90;;;;;;5012378;28;20040;-77
2022/08/30 07:40:51;;;;;;;3.53;1.75;;;21.20;91.00;;;;;;5013128;28;20061;-78
2022/08/30 07:43:17;;;;;;;5.43;1.67;;;21.30;91.00;;;;;;5012299;28;20433;-78
2022/08/30 07:45:42;;;;;;;3.65;1.70;;;21.40;90.80;;;;;;5012421;28;20018;-78
2022/08/30 07:48:10;;;;;;;4.32;1.90;;;21.40;90.50;;;;;;5012452;28;20398;-78
2022/08/30 07:50:37;;;;;;;8.55;2.10;;;21.50;90.50;;;;;;5012359;28;20034;-78
2022/08/30 07:53:03;;;;;;;3.28;1.70;;;21.60;90.50;;;;;;5012190;28;20030;-79
2022/08/30 07:55:29;;;;;;;5.78;2.15;;;21.70;90.30;;;;;;5011835;28;20022;-79
2022/08/30 07:57:55;;;;;;;7.80;1.92;;;21.70;90.30;;;;;;5012400;28;20061;-79
2022/08/30 08:00:20;;;;;;;3.13;1.67;;;21.70;90.50;;;;;;5012288;28;20030;-81
2022/08/30 08:02:46;;;;;;;4.32;1.90;;;21.70;90.40;;;;;;5011419;28;20026;-81
2022/08/30 08:05:13;;;;;;;4.90;2.20;;;21.70;90.70;;;;;;5012102;28;20480;-80
2022/08/30 08:07:38;;;;;;;3.75;1.70;;;21.70;90.50;;;;;;5011499;28;20037;-79
2022/08/30 08:10:05;;;;;;;4.72;2.20;;;21.80;90.40;;;;;;5013419;28;20162;-79
2022/08/30 08:12:30;;;;;;;3.00;2.13;;;21.80;90.30;;;;;;5011719;28;20022;-78
2022/08/30 08:14:56;;;;;;;2.90;1.65;;;21.90;90.30;;;;;;5011375;28;20572;-78
2022/08/30 08:17:21;;;;;;;3.55;1.70;;;22.00;90.20;;;;;;5011638;28;20168;-77
2022/08/30 08:19:47;;;;;;;4.97;2.15;;;22.00;90.20;;;;;;5011144;28;20041;-79
2022/08/30 08:22:13;;;;;;;3.28;1.90;;;22.10;90.00;;;;;;5011902;28;20348;-80
2022/08/30 08:24:38;;;;;;;4.28;1.70;;;22.10;90.00;;;;;;5011434;28;20018;-80
2022/08/30 08:27:04;;;;;;;3.92;1.80;;;22.10;90.10;;;;;;5013044;28;20101;-81
2022/08/30 08:29:30;;;;;;;5.15;1.80;;;22.10;90.20;;;;;;5011090;28;20033;-80
2022/08/30 08:31:56;;;;;;;4.50;1.83;;;22.20;90.20;;;;;;5012916;28;20037;-79
2022/08/30 08:34:22;;;;;;;6.93;2.38;;;22.20;90.10;;;;;;5011995;28;20105;-82
2022/08/30 08:36:52;;;;;;;8.40;1.90;;;22.20;90.00;;;;;;5012268;28;20057;-80
2022/08/30 08:39:18;;;;;;;3.97;1.85;;;22.20;90.00;;;;;;5012828;28;20021;-80
2022/08/30 08:41:58;;;;;;;4.70;2.53;;;22.20;89.90;;;;;;5012409;28;20049;-81
2022/08/30 08:44:53;;;;;;;7.65;2.00;;;22.20;89.90;;;;;;5011086;28;20521;-80
2022/08/30 08:47:18;;;;;;;3.58;1.85;;;22.30;90.10;;;;;;5011504;28;20037;-80
2022/08/30 08:49:48;;;;;;;3.38;1.70;;;22.30;90.00;;;;;;5011505;28;20414;-80
2022/08/30 08:55:11;;;;;;;5.38;2.33;;;22.40;90.00;;;;;;5016385;28;20036;-81
2022/08/30 08:57:38;;;;;;;3.22;1.70;;;22.50;89.60;;;;;;5015374;28;20034;-79
2022/08/30 09:00:06;;;;;;;4.90;2.13;;;22.50;89.60;;;;;;5016147;28;20065;-79
2022/08/30 09:02:43;;;;;;;4.80;2.10;;;22.60;90.00;;;;;;5015264;28;20029;-87
2022/08/30 09:05:16;;;;;;;5.85;2.30;;;22.70;89.90;;;;;;5016397;28;20072;-85
2022/08/30 09:07:47;;;;;;;5.75;2.53;;;22.70;89.70;;;;;;5015630;28;20033;-85
2022/08/30 09:10:13;;;;;;;3.80;1.95;;;22.80;89.70;;;;;;5016026;28;20032;-85
2022/08/30 09:12:39;;;;;;;3.33;1.88;;;22.90;89.40;;;;;;5016366;28;20022;-85
2022/08/30 09:15:15;;;;;;;5.22;2.42;;;23.00;90.00;;;;;;5016562;28;20124;-85
2022/08/30 09:17:48;;;;;;;4.80;2.20;;;23.10;89.50;;;;;;5016161;28;20030;-85
2022/08/30 09:20:24;;;;;;;6.68;2.53;;;23.10;89.40;;;;;;5016196;28;20034;-85
2022/08/30 09:22:49;;;;;;;5.35;2.50;;;23.20;90.50;;;;;;5015042;28;20030;-85
2022/08/30 09:25:28;;;;;;;4.50;2.47;;;23.30;89.70;;;;;;5016767;28;20034;-86
2022/08/30 09:28:08;;;;;;;2.65;1.92;;;23.50;89.60;;;;;;5015291;28;20030;-86
2022/08/30 09:30:34;;;;;;;5.18;2.45;;;23.60;88.30;;;;;;5015724;28;20022;-86
2022/08/30 09:33:03;;;;;;;4.70;2.42;;;23.80;87.90;;;;;;5015027;28;20037;-84
2022/08/30 09:35:36;;;;;;;4.85;2.38;;;23.90;88.10;;;;;;5016706;28;20092;-93
2022/08/30 09:38:10;;;;;;;5.13;2.40;;;23.90;88.30;;;;;;5015916;28;20199;-91
2022/08/30 09:41:21;;;;;;;4.35;2.47;;;24.00;88.00;;;;;;5007259;28;20049;-84
2022/08/30 09:44:01;;;;;;;;;;;24.00;87.40;;;;;;5012516;28;20033;-81
2022/08/30 09:46:27;;;;;;;4.65;2.20;;;24.00;88.00;;;;;;5009047;28;20287;-82
2022/08/30 09:48:53;;;;;;;5.40;2.45;;;24.00;88.00;;;;;;5011973;28;20034;-84
2022/08/30 09:51:39;;;;;;;4.75;2.50;;;24.00;87.90;;;;;;5012195;28;20101;-84
2022/08/30 09:54:25;;;;;;;5.70;2.42;;;24.00;88.70;;;;;;5011237;28;20116;-86
2022/08/30 09:57:17;;;;;;;5.95;2.60;;;24.10;89.40;;;;;;5012909;28;20033;-83
2022/08/30 10:00:06;;;;;;;3.75;2.50;;;24.20;88.30;;;;;;5008965;28;20038;-83
2022/08/30 10:02:53;;;;;;;5.70;2.60;;;24.40;87.70;;;;;;5008045;28;20040;-82
2022/08/30 10:05:51;;;;;;;8.05;2.47;;;24.60;87.20;;;;;;5011263;28;20029;-83
2022/08/30 10:08:26;;;;;;;5.05;2.50;;;24.70;86.60;;;;;;5010251;28;20052;-91
2022/08/30 10:11:00;;;;;;;5.53;2.60;;;24.80;86.20;;;;;;5013952;28;20105;-91
2022/08/30 10:13:55;;;;;;;7.20;2.67;;;24.80;86.00;;;;;;5006889;28;20037;-88
2022/08/30 10:16:33;;;;;;;14.25;3.85;;;24.90;85.90;;;;;;5010048;28;20045;-91
2022/08/30 10:19:22;;;;;;;7.22;3.10;;;24.90;86.10;;;;;;4998478;28;20112;-94
2022/08/30 10:21:51;;;;;;;4.97;2.50;;;25.00;85.20;;;;;;5010510;28;20062;-88
2022/08/30 10:24:27;;;;;;;6.05;2.75;;;24.90;85.40;;;;;;5010573;28;20026;-83
2022/08/30 10:27:11;;;;;;;7.93;2.60;;;25.00;86.50;;;;;;5008443;28;20371;-85
2022/08/30 10:29:43;;;;;;;5.75;2.75;;;25.10;86.20;;;;;;5002374;28;20120;-82
2022/08/30 10:32:28;;;;;;;4.85;2.55;;;25.10;86.80;;;;;;5001033;28;20054;-83
2022/08/30 10:35:04;;;;;;;7.28;2.65;;;25.20;85.40;;;;;;5009594;28;20068;-87
2022/08/30 10:37:34;;;;;;;5.05;2.90;;;25.30;86.60;;;;;;5003245;28;20040;-87
2022/08/30 10:43:04;;;;;;;6.65;2.97;;;25.30;85.10;;;;;;5003865;28;20038;-87
2022/08/30 10:45:35;;;;;;;3.90;2.58;;;25.40;85.50;;;;;;5007019;28;20451;-86
2022/08/30 10:48:08;;;;;;;;;;;25.40;85.40;;;;;;5013324;28;20041;-89
2022/08/30 10:50:41;;;;;;;5.43;2.80;;;25.50;83.90;;;;;;4997043;28;19909;-82
2022/08/30 10:53:15;;;;;;;6.07;2.85;;;25.40;85.00;;;;;;5015250;28;20113;-93
2022/08/30 10:55:50;;;;;;;4.75;2.60;;;25.50;84.10;;;;;;5004285;28;20026;-90
2022/08/30 10:58:17;;;;;;;4.65;2.53;;;25.50;84.00;;;;;;5010172;28;20025;-86
2022/08/30 11:01:12;;;;;;;3.80;2.65;;;25.60;84.20;;;;;;4996000;28;20034;-83
2022/08/30 11:04:10;;;;;;;4.43;2.65;;;25.70;83.10;;;;;;4973312;28;20042;-86
2022/08/30 11:06:47;;;;;;;4.00;2.75;;;25.70;83.00;;;;;;5010570;28;20156;-84
2022/08/30 11:09:45;;;;;;;6.30;2.88;;;25.70;83.30;;;;;;5012187;28;20045;-85
2022/08/30 11:12:23;;;;;;;5.18;2.70;;;25.90;83.40;;;;;;4999502;28;20050;-89
2022/08/30 11:14:48;;;;;;;4.40;2.63;;;26.10;82.60;;;;;;5003802;28;20133;-82
2022/08/30 11:17:55;;;;;;;4.85;2.63;;;26.10;82.60;;;;;;5009387;28;20121;-82
2022/08/30 11:20:35;;;;;;;4.70;2.70;;;26.30;80.80;;;;;;4986243;28;20063;-84
2022/08/30 11:23:23;;;;;;;2.85;2.47;;;26.40;82.20;;;;;;5012753;28;20422;-82
2022/08/30 11:25:53;;;;;;;4.90;3.08;;;26.40;81.40;;;;;;5001937;28;20467;-90
2022/08/30 11:28:54;;;;;;;3.97;3.08;;;26.60;80.40;;;;;;5008127;28;20188;-86
2022/08/30 11:31:20;;;;;;;3.43;3.03;;;26.70;76.90;;;;;;4978786;28;20536;-85
2022/08/30 11:33:52;;;;;;;3.85;2.70;;;26.90;78.40;;;;;;5005756;28;20128;-83
2022/08/30 11:36:37;;;;;;;4.35;2.63;;;26.90;77.10;;;;;;5012460;28;20037;-86
2022/08/30 11:39:41;;;;;;;4.72;2.80;;;26.90;77.30;;;;;;4999737;28;20070;-86
2022/08/30 11:42:43;;;;;;;4.25;2.65;;;26.80;77.60;;;;;;5006296;28;20022;-86
2022/08/30 11:45:24;;;;;;;4.05;3.00;;;26.80;76.70;;;;;;5004235;28;20121;-88
2022/08/30 11:47:52;;;;;;;2.87;2.50;;;26.80;77.50;;;;;;5008049;28;20033;-88
2022/08/30 11:50:24;;;;;;;5.43;3.00;;;26.90;76.70;;;;;;5009363;28;20927;-82
2022/08/30 11:53:25;;;;;;;3.85;2.83;;;27.00;77.40;;;;;;4996169;28;20470;-87
2022/08/30 11:56:14;;;;;;;4.18;2.72;;;27.10;76.50;;;;;;5000701;28;20026;-87
2022/08/30 11:59:04;;;;;;;2.95;2.45;;;27.10;73.80;;;;;;5000390;28;20046;-81
2022/08/30 12:01:35;;;;;;;3.42;2.33;;;27.20;74.00;;;;;;4989347;28;20034;-82
2022/08/30 12:04:12;;;;;;;;;;;27.30;73.90;;;;;;5013012;28;20030;-83
2022/08/30 12:06:41;;;;;;;4.78;2.80;;;27.30;73.60;;;;;;4995701;28;19905;-84
2022/08/30 12:09:32;;;;;;;4.13;2.90;;;27.40;75.10;;;;;;5008372;28;20061;-87
2022/08/30 12:12:02;;;;;;;6.00;3.05;;;27.50;75.00;;;;;;5004781;28;20026;-84
2022/08/30 12:14:43;;;;;;;4.00;2.80;;;27.70;74.10;;;;;;4996089;28;20325;-85
2022/08/30 12:20:22;;;;;;;4.72;3.00;;;28.00;74.30;;;;;;5005212;28;20053;-82
2022/08/30 12:22:49;;;;;;;3.07;2.53;;;28.20;74.20;;;;;;5010838;28;20149;-76
2022/08/30 12:25:27;;;;;;;4.82;2.90;;;28.30;72.00;;;;;;5008055;28;20274;-76
2022/08/30 12:28:09;;;;;;;5.30;3.10;;;28.50;72.50;;;;;;5025469;28;20430;-75
2022/08/30 12:30:38;;;;;;;4.50;2.80;;;28.70;71.80;;;;;;5009700;28;20025;-76
2022/08/30 12:33:04;;;;;;;4.28;2.80;;;29.00;72.10;;;;;;5009144;28;20026;-76
2022/08/30 12:35:30;;;;;;;4.28;2.50;;;29.20;69.70;;;;;;5011181;28;20028;-76
2022/08/30 12:38:02;;;;;;;4.63;2.88;;;29.30;70.40;;;;;;5013104;28;20042;-75
2022/08/30 12:40:30;;;;;;;8.05;3.22;;;29.40;67.80;;;;;;5012152;28;20030;-76
2022/08/30 12:43:06;;;;;;;4.10;2.92;;;29.50;67.70;;;;;;5012193;28;20034;-75
2022/08/30 12:45:40;;;;;;;6.47;3.30;;;29.50;66.40;;;;;;5011087;28;20052;-76
2022/08/30 12:48:09;;;;;;;4.22;2.75;;;29.50;66.10;;;;;;5011101;28;20176;-76
2022/08/30 12:50:57;;;;;;;8.15;2.92;;;29.60;67.00;;;;;;5000679;28;20653;-76
2022/08/30 12:53:28;;;;;;;4.55;2.70;;;29.80;67.20;;;;;;5008812;28;20077;-75
2022/08/30 12:55:58;;;;;;;6.50;3.08;;;30.10;66.60;;;;;;5009237;28;20034;-75
2022/08/30 12:58:42;;;;;;;6.03;3.35;;;30.20;67.50;;;;;;5011456;28;20541;-75
2022/08/30 13:01:23;;;;;;;6.05;3.55;;;30.40;66.10;;;;;;5013028;28;20018;-75
2022/08/30 13:03:57;;;;;;;3.90;3.10;;;30.50;65.50;;;;;;5012260;28;20029;-75
2022/08/30 13:06:57;;;;;;;3.40;2.70;;;30.60;64.10;;;;;;5012952;28;20030;-75
2022/08/30 13:09:26;;;;;;;4.57;2.45;;;30.60;63.10;;;;;;4973098;28;20064;-82
2022/08/30 13:11:52;;;;;;;4.53;2.72;;;30.80;62.70;;;;;;5006060;28;20429;-84
2022/08/30 13:14:40;;;;;;;3.47;3.00;;;31.00;61.50;;;;;;5009947;28;20080;-81
2022/08/30 13:17:24;;;;;;;4.85;2.70;;;31.30;61.30;;;;;;4999835;28;20172;-83